Jefferson Valley, New York
Current Conditions -  °F | °C
As of 12:53 AM on Friday 19 Dec 2014 (Local Time) from KDXR Reporting Station
Overcast Overcast  
Wind Chill: 30°   Ceiling: 4800
Heat Index: 34°   Visibility: 10mi
Dew Point: 23°   Wind: 5mph
Humidity: 64%   Direction: 290°WNW
Pressure: 29.94"   Gusts: NA
Location:  41.34°N, 73.79°W
Report Text: KDXR 190553Z AUTO 29004KT 10SM OVC048 01/M05 A2994 RMK AO2 SLP140 T00111050 10017 21006 50000
Loading
Personal Weather Stations






























Interactive Weather Map New forecast layout! Learn more

10-Day Weather Forecast

Advertisements
Track Severe Weather on mobile